sensor_id;sensor_type;location;lat;lon;timestamp;pressure;altitude;pressure_sealevel;temperature;humidity
56681;BME280;42558;52.388;13.390;2023-03-19T00:01:15;100919.70;;;6.57;98.34
56681;BME280;42558;52.388;13.390;2023-03-19T00:03:43;100915.17;;;6.53;98.42
56681;BME280;42558;52.388;13.390;2023-03-19T00:06:12;100912.02;;;6.52;99.05
56681;BME280;42558;52.388;13.390;2023-03-19T00:08:40;100907.66;;;6.58;99.01
56681;BME280;42558;52.388;13.390;2023-03-19T00:11:12;100908.31;;;6.56;98.37
56681;BME280;42558;52.388;13.390;2023-03-19T00:13:40;100910.20;;;6.56;97.90
56681;BME280;42558;52.388;13.390;2023-03-19T00:16:08;100908.41;;;6.54;97.62
56681;BME280;42558;52.388;13.390;2023-03-19T00:18:37;100907.41;;;6.50;97.18
56681;BME280;42558;52.388;13.390;2023-03-19T00:21:05;100912.65;;;6.45;96.65
56681;BME280;42558;52.388;13.390;2023-03-19T00:23:34;100913.14;;;6.39;96.82
56681;BME280;42558;52.388;13.390;2023-03-19T00:26:02;100911.06;;;6.34;96.53
56681;BME280;42558;52.388;13.390;2023-03-19T00:28:31;100907.80;;;6.30;96.48
56681;BME280;42558;52.388;13.390;2023-03-19T00:31:11;100906.55;;;6.23;96.19
56681;BME280;42558;52.388;13.390;2023-03-19T00:33:42;100906.01;;;6.18;96.48
56681;BME280;42558;52.388;13.390;2023-03-19T00:36:12;100909.13;;;6.18;96.70
56681;BME280;42558;52.388;13.390;2023-03-19T00:38:44;100913.45;;;6.16;96.79
56681;BME280;42558;52.388;13.390;2023-03-19T00:41:14;100917.19;;;6.13;96.70
56681;BME280;42558;52.388;13.390;2023-03-19T00:43:51;100913.56;;;6.09;96.74
56681;BME280;42558;52.388;13.390;2023-03-19T00:46:22;100918.27;;;6.04;97.00
56681;BME280;42558;52.388;13.390;2023-03-19T00:48:52;100919.00;;;6.00;97.12
56681;BME280;42558;52.388;13.390;2023-03-19T00:51:24;100915.13;;;5.94;97.05
56681;BME280;42558;52.388;13.390;2023-03-19T00:53:54;100913.77;;;5.90;97.46
56681;BME280;42558;52.388;13.390;2023-03-19T00:56:24;100916.10;;;5.88;97.50
56681;BME280;42558;52.388;13.390;2023-03-19T00:58:55;100915.96;;;5.84;97.71
56681;BME280;42558;52.388;13.390;2023-03-19T01:01:26;100917.47;;;5.82;97.59
56681;BME280;42558;52.388;13.390;2023-03-19T01:03:56;100918.98;;;5.81;97.57
56681;BME280;42558;52.388;13.390;2023-03-19T01:06:26;100921.95;;;5.76;97.33
56681;BME280;42558;52.388;13.390;2023-03-19T01:08:56;100919.64;;;5.69;97.11
56681;BME280;42558;52.388;13.390;2023-03-19T01:11:27;100921.20;;;5.64;97.42
56681;BME280;42558;52.388;13.390;2023-03-19T01:13:56;100923.44;;;5.63;97.66
56681;BME280;42558;52.388;13.390;2023-03-19T01:16:26;100922.10;;;5.60;97.68
56681;BME280;42558;52.388;13.390;2023-03-19T01:18:56;100919.73;;;5.58;97.66
56681;BME280;42558;52.388;13.390;2023-03-19T01:21:27;100918.39;;;5.59;97.86
56681;BME280;42558;52.388;13.390;2023-03-19T01:23:59;100922.17;;;5.57;97.95
56681;BME280;42558;52.388;13.390;2023-03-19T01:26:29;100923.98;;;5.54;97.84
56681;BME280;42558;52.388;13.390;2023-03-19T01:28:59;100925.97;;;5.52;98.11
56681;BME280;42558;52.388;13.390;2023-03-19T01:31:29;100921.58;;;5.50;98.30
56681;BME280;42558;52.388;13.390;2023-03-19T01:33:59;100920.02;;;5.46;98.41
56681;BME280;42558;52.388;13.390;2023-03-19T01:36:29;100922.05;;;5.44;98.45
56681;BME280;42558;52.388;13.390;2023-03-19T01:38:59;100928.90;;;5.46;98.61
56681;BME280;42558;52.388;13.390;2023-03-19T01:41:29;100927.80;;;5.49;98.71
56681;BME280;42558;52.388;13.390;2023-03-19T01:43:59;100927.41;;;5.53;98.62
56681;BME280;42558;52.388;13.390;2023-03-19T01:46:31;100921.88;;;5.54;97.85
56681;BME280;42558;52.388;13.390;2023-03-19T01:49:06;100924.34;;;5.50;97.66
56681;BME280;42558;52.388;13.390;2023-03-19T01:51:41;100922.69;;;5.48;97.69
56681;BME280;42558;52.388;13.390;2023-03-19T01:54:18;100925.52;;;5.44;97.81
56681;BME280;42558;52.388;13.390;2023-03-19T01:56:57;100921.18;;;5.40;97.65
56681;BME280;42558;52.388;13.390;2023-03-19T01:59:35;100922.04;;;5.40;97.72
56681;BME280;42558;52.388;13.390;2023-03-19T02:02:24;100919.35;;;5.42;97.61
56681;BME280;42558;52.388;13.390;2023-03-19T02:05:03;100919.04;;;5.43;97.42
56681;BME280;42558;52.388;13.390;2023-03-19T02:07:36;100924.47;;;5.44;97.17
56681;BME280;42558;52.388;13.390;2023-03-19T02:10:13;100920.15;;;5.45;97.12
56681;BME280;42558;52.388;13.390;2023-03-19T02:12:45;100911.51;;;5.47;96.88
56681;BME280;42558;52.388;13.390;2023-03-19T02:15:16;100910.64;;;5.52;96.65
56681;BME280;42558;52.388;13.390;2023-03-19T02:17:46;100906.73;;;5.55;96.24
56681;BME280;42558;52.388;13.390;2023-03-19T02:20:36;100910.16;;;5.58;95.55
56681;BME280;42558;52.388;13.390;2023-03-19T02:26:02;100908.37;;;5.67;94.52
56681;BME280;42558;52.388;13.390;2023-03-19T02:28:33;100909.63;;;5.72;94.12
56681;BME280;42558;52.388;13.390;2023-03-19T02:31:03;100910.93;;;5.75;94.14
56681;BME280;42558;52.388;13.390;2023-03-19T02:33:31;100911.40;;;5.78;93.90
56681;BME280;42558;52.388;13.390;2023-03-19T02:36:02;100909.80;;;5.82;93.41
56681;BME280;42558;52.388;13.390;2023-03-19T02:38:36;100906.28;;;5.87;93.17
56681;BME280;42558;52.388;13.390;2023-03-19T02:41:09;100907.84;;;5.90;92.40
56681;BME280;42558;52.388;13.390;2023-03-19T02:43:40;100907.34;;;5.96;91.81
56681;BME280;42558;52.388;13.390;2023-03-19T02:46:12;100909.34;;;5.98;91.70
56681;BME280;42558;52.388;13.390;2023-03-19T02:48:42;100898.89;;;5.99;91.27
56681;BME280;42558;52.388;13.390;2023-03-19T02:51:12;100900.14;;;6.05;90.64
56681;BME280;42558;52.388;13.390;2023-03-19T02:53:42;100909.92;;;6.05;91.00
56681;BME280;42558;52.388;13.390;2023-03-19T02:56:12;100906.39;;;6.04;91.13
56681;BME280;42558;52.388;13.390;2023-03-19T02:58:41;100909.20;;;6.00;91.68
56681;BME280;42558;52.388;13.390;2023-03-19T03:01:11;100910.41;;;5.99;91.49
56681;BME280;42558;52.388;13.390;2023-03-19T03:03:41;100911.41;;;5.98;91.87
56681;BME280;42558;52.388;13.390;2023-03-19T03:06:09;100911.91;;;5.92;92.51
56681;BME280;42558;52.388;13.390;2023-03-19T03:08:38;100915.99;;;5.89;92.71
56681;BME280;42558;52.388;13.390;2023-03-19T03:11:06;100912.27;;;5.88;92.63
56681;BME280;42558;52.388;13.390;2023-03-19T03:13:35;100909.00;;;6.04;90.51
56681;BME280;42558;52.388;13.390;2023-03-19T03:16:04;100909.48;;;6.23;88.73
56681;BME280;42558;52.388;13.390;2023-03-19T03:18:32;100909.73;;;6.19;88.56
56681;BME280;42558;52.388;13.390;2023-03-19T03:21:00;100920.91;;;6.15;88.24
56681;BME280;42558;52.388;13.390;2023-03-19T03:23:29;100920.95;;;6.11;88.02
56681;BME280;42558;52.388;13.390;2023-03-19T03:25:57;100924.42;;;6.06;88.73
56681;BME280;42558;52.388;13.390;2023-03-19T03:28:25;100925.11;;;6.00;89.07
56681;BME280;42558;52.388;13.390;2023-03-19T03:31:01;100922.78;;;6.04;88.30
56681;BME280;42558;52.388;13.390;2023-03-19T03:33:31;100923.62;;;6.17;87.50
56681;BME280;42558;52.388;13.390;2023-03-19T03:36:01;100923.88;;;6.10;87.69
56681;BME280;42558;52.388;13.390;2023-03-19T03:38:32;100927.51;;;6.03;88.50
56681;BME280;42558;52.388;13.390;2023-03-19T03:41:02;100931.85;;;5.98;89.43
56681;BME280;42558;52.388;13.390;2023-03-19T03:43:32;100941.80;;;5.94;90.08
56681;BME280;42558;52.388;13.390;2023-03-19T03:46:02;100955.24;;;5.94;89.90
56681;BME280;42558;52.388;13.390;2023-03-19T03:48:32;100969.48;;;5.92;89.97
56681;BME280;42558;52.388;13.390;2023-03-19T03:51:02;100973.78;;;5.86;89.40
56681;BME280;42558;52.388;13.390;2023-03-19T03:53:32;100970.61;;;5.80;89.92
56681;BME280;42558;52.388;13.390;2023-03-19T03:56:03;100974.09;;;5.70;90.90
56681;BME280;42558;52.388;13.390;2023-03-19T03:58:33;100973.65;;;5.68;91.43
56681;BME280;42558;52.388;13.390;2023-03-19T04:01:03;100956.70;;;5.62;91.91
56681;BME280;42558;52.388;13.390;2023-03-19T04:03:31;100961.41;;;5.67;91.64
56681;BME280;42558;52.388;13.390;2023-03-19T04:05:59;100965.19;;;5.65;91.32
56681;BME280;42558;52.388;13.390;2023-03-19T04:08:28;100959.60;;;5.60;91.49
56681;BME280;42558;52.388;13.390;2023-03-19T04:10:56;100972.98;;;5.59;92.39
56681;BME280;42558;52.388;13.390;2023-03-19T04:13:25;100981.00;;;5.59;92.76
56681;BME280;42558;52.388;13.390;2023-03-19T04:15:53;100974.89;;;5.55;92.51
56681;BME280;42558;52.388;13.390;2023-03-19T04:18:21;100984.41;;;5.57;92.63
56681;BME280;42558;52.388;13.390;2023-03-19T04:20:50;100986.21;;;5.59;92.98
56681;BME280;42558;52.388;13.390;2023-03-19T04:23:18;100980.98;;;5.54;93.17
56681;BME280;42558;52.388;13.390;2023-03-19T04:25:47;100982.95;;;5.55;93.84
56681;BME280;42558;52.388;13.390;2023-03-19T04:28:15;100987.60;;;5.58;93.88
56681;BME280;42558;52.388;13.390;2023-03-19T04:30:43;100988.52;;;5.59;93.95
56681;BME280;42558;52.388;13.390;2023-03-19T04:33:12;100997.19;;;5.63;94.19
56681;BME280;42558;52.388;13.390;2023-03-19T04:35:40;100994.33;;;5.65;94.06
56681;BME280;42558;52.388;13.390;2023-03-19T04:38:09;100993.82;;;5.66;94.34
56681;BME280;42558;52.388;13.390;2023-03-19T04:40:37;100986.67;;;5.66;94.33
56681;BME280;42558;52.388;13.390;2023-03-19T04:43:05;100985.81;;;5.67;94.46
56681;BME280;42558;52.388;13.390;2023-03-19T04:45:34;100986.86;;;5.67;94.47
56681;BME280;42558;52.388;13.390;2023-03-19T04:48:02;100995.02;;;5.65;94.24
56681;BME280;42558;52.388;13.390;2023-03-19T04:50:31;101000.40;;;5.70;94.08
56681;BME280;42558;52.388;13.390;2023-03-19T04:53:00;101003.20;;;5.74;94.09
56681;BME280;42558;52.388;13.390;2023-03-19T04:55:28;100997.09;;;5.75;94.08
56681;BME280;42558;52.388;13.390;2023-03-19T04:57:56;100991.06;;;5.76;94.42
56681;BME280;42558;52.388;13.390;2023-03-19T05:00:25;100985.11;;;5.76;94.73
56681;BME280;42558;52.388;13.390;2023-03-19T05:02:54;100985.00;;;5.78;95.20
56681;BME280;42558;52.388;13.390;2023-03-19T05:05:21;100976.95;;;5.82;95.14
56681;BME280;42558;52.388;13.390;2023-03-19T05:07:49;100964.31;;;5.85;95.29
56681;BME280;42558;52.388;13.390;2023-03-19T05:10:18;100960.61;;;5.88;95.12
56681;BME280;42558;52.388;13.390;2023-03-19T05:12:46;100961.35;;;5.94;94.59
56681;BME280;42558;52.388;13.390;2023-03-19T05:15:15;100956.55;;;6.11;92.34
56681;BME280;42558;52.388;13.390;2023-03-19T05:17:43;100961.54;;;6.19;92.22
56681;BME280;42558;52.388;13.390;2023-03-19T05:20:13;100961.98;;;6.16;92.60
56681;BME280;42558;52.388;13.390;2023-03-19T05:22:43;100966.52;;;6.16;90.70
56681;BME280;42558;52.388;13.390;2023-03-19T05:25:12;100967.03;;;6.21;89.94
56681;BME280;42558;52.388;13.390;2023-03-19T05:27:40;100967.39;;;6.21;89.84
56681;BME280;42558;52.388;13.390;2023-03-19T05:30:09;100965.58;;;6.20;90.36
56681;BME280;42558;52.388;13.390;2023-03-19T05:32:37;100963.59;;;6.17;90.92
56681;BME280;42558;52.388;13.390;2023-03-19T05:35:09;100965.96;;;6.15;91.31
56681;BME280;42558;52.388;13.390;2023-03-19T05:37:39;100964.70;;;6.19;90.72
56681;BME280;42558;52.388;13.390;2023-03-19T05:40:10;100970.23;;;6.22;90.59
56681;BME280;42558;52.388;13.390;2023-03-19T05:42:41;100969.00;;;6.22;90.92
56681;BME280;42558;52.388;13.390;2023-03-19T05:45:11;100969.62;;;6.25;90.78
56681;BME280;42558;52.388;13.390;2023-03-19T05:47:41;100970.08;;;6.29;90.59
56681;BME280;42558;52.388;13.390;2023-03-19T05:50:11;100972.48;;;6.33;90.28
56681;BME280;42558;52.388;13.390;2023-03-19T05:52:41;100978.08;;;6.38;89.98
56681;BME280;42558;52.388;13.390;2023-03-19T05:55:11;100973.04;;;6.39;89.41
56681;BME280;42558;52.388;13.390;2023-03-19T05:57:41;100961.80;;;6.42;89.82
56681;BME280;42558;52.388;13.390;2023-03-19T06:00:12;100956.79;;;6.43;89.71
56681;BME280;42558;52.388;13.390;2023-03-19T06:02:42;100954.38;;;6.44;88.47
56681;BME280;42558;52.388;13.390;2023-03-19T06:05:12;100954.41;;;6.46;87.92
56681;BME280;42558;52.388;13.390;2023-03-19T06:07:42;100959.10;;;6.50;87.67
56681;BME280;42558;52.388;13.390;2023-03-19T06:10:12;100965.52;;;6.54;86.98
56681;BME280;42558;52.388;13.390;2023-03-19T06:12:42;100969.88;;;6.59;87.56
56681;BME280;42558;52.388;13.390;2023-03-19T06:15:12;100977.77;;;6.65;87.52
56681;BME280;42558;52.388;13.390;2023-03-19T06:17:42;100977.56;;;6.75;87.86
56681;BME280;42558;52.388;13.390;2023-03-19T06:20:13;100979.26;;;6.73;87.27
56681;BME280;42558;52.388;13.390;2023-03-19T06:22:43;100977.60;;;6.76;87.11
56681;BME280;42558;52.388;13.390;2023-03-19T06:25:13;100976.75;;;6.82;87.53
56681;BME280;42558;52.388;13.390;2023-03-19T06:27:43;100974.77;;;6.80;87.19
56681;BME280;42558;52.388;13.390;2023-03-19T06:30:13;100980.39;;;6.87;87.25
56681;BME280;42558;52.388;13.390;2023-03-19T06:32:44;100987.61;;;6.94;87.04
56681;BME280;42558;52.388;13.390;2023-03-19T06:35:13;100996.72;;;7.00;86.76
56681;BME280;42558;52.388;13.390;2023-03-19T06:37:43;101003.77;;;6.96;86.67
56681;BME280;42558;52.388;13.390;2023-03-19T06:40:14;101000.64;;;6.97;86.76
56681;BME280;42558;52.388;13.390;2023-03-19T06:42:45;101004.39;;;7.00;86.32
56681;BME280;42558;52.388;13.390;2023-03-19T06:45:16;101013.48;;;7.04;85.95
56681;BME280;42558;52.388;13.390;2023-03-19T06:47:47;101026.05;;;7.15;86.26
56681;BME280;42558;52.388;13.390;2023-03-19T06:50:17;101030.11;;;7.22;85.27
56681;BME280;42558;52.388;13.390;2023-03-19T06:52:47;101031.80;;;7.26;85.22
56681;BME280;42558;52.388;13.390;2023-03-19T06:55:17;101028.96;;;7.30;84.97
56681;BME280;42558;52.388;13.390;2023-03-19T06:57:49;101037.67;;;7.34;84.04
56681;BME280;42558;52.388;13.390;2023-03-19T07:00:20;101045.92;;;7.41;84.01
56681;BME280;42558;52.388;13.390;2023-03-19T07:02:49;101048.89;;;7.47;84.51
56681;BME280;42558;52.388;13.390;2023-03-19T07:05:19;101057.82;;;7.48;84.72
56681;BME280;42558;52.388;13.390;2023-03-19T07:07:49;101083.30;;;7.45;85.72
56681;BME280;42558;52.388;13.390;2023-03-19T07:10:21;101110.67;;;7.37;86.89
56681;BME280;42558;52.388;13.390;2023-03-19T07:12:51;101120.07;;;7.30;87.90
56681;BME280;42558;52.388;13.390;2023-03-19T07:15:20;101111.88;;;7.26;88.79
56681;BME280;42558;52.388;13.390;2023-03-19T07:17:50;101103.85;;;7.31;89.32
56681;BME280;42558;52.388;13.390;2023-03-19T07:20:20;101106.06;;;7.40;89.36
56681;BME280;42558;52.388;13.390;2023-03-19T07:22:52;101103.73;;;7.44;89.37
56681;BME280;42558;52.388;13.390;2023-03-19T07:25:20;101107.66;;;7.57;90.10
56681;BME280;42558;52.388;13.390;2023-03-19T07:27:48;101094.29;;;7.73;89.65
56681;BME280;42558;52.388;13.390;2023-03-19T07:30:17;101078.94;;;7.79;89.12
56681;BME280;42558;52.388;13.390;2023-03-19T07:32:45;101077.95;;;8.00;89.02
56681;BME280;42558;52.388;13.390;2023-03-19T07:35:14;101069.96;;;8.21;88.58
56681;BME280;42558;52.388;13.390;2023-03-19T07:37:42;101064.50;;;8.44;86.87
56681;BME280;42558;52.388;13.390;2023-03-19T07:40:11;101060.42;;;8.30;85.79
56681;BME280;42558;52.388;13.390;2023-03-19T07:42:39;101049.66;;;8.39;85.52
56681;BME280;42558;52.388;13.390;2023-03-19T07:45:08;101043.50;;;8.44;84.02
56681;BME280;42558;52.388;13.390;2023-03-19T07:47:36;101042.83;;;8.66;83.85
56681;BME280;42558;52.388;13.390;2023-03-19T07:50:05;101042.78;;;8.85;81.77
56681;BME280;42558;52.388;13.390;2023-03-19T07:52:33;101050.56;;;9.23;81.64
56681;BME280;42558;52.388;13.390;2023-03-19T07:55:03;101047.00;;;9.67;79.14
56681;BME280;42558;52.388;13.390;2023-03-19T07:57:33;101048.66;;;10.13;78.64
56681;BME280;42558;52.388;13.390;2023-03-19T08:00:04;101046.88;;;10.66;76.01
56681;BME280;42558;52.388;13.390;2023-03-19T08:02:35;101046.89;;;10.86;75.10
56681;BME280;42558;52.388;13.390;2023-03-19T08:05:05;101046.91;;;10.57;74.04
56681;BME280;42558;52.388;13.390;2023-03-19T08:07:37;101042.52;;;10.48;75.49
56681;BME280;42558;52.388;13.390;2023-03-19T08:10:08;101045.00;;;10.22;75.75
56681;BME280;42558;52.388;13.390;2023-03-19T08:12:38;101051.24;;;10.35;77.28
56681;BME280;42558;52.388;13.390;2023-03-19T08:15:10;101049.42;;;10.60;76.62
56681;BME280;42558;52.388;13.390;2023-03-19T08:17:40;101056.05;;;10.68;76.39
56681;BME280;42558;52.388;13.390;2023-03-19T08:20:14;101065.98;;;10.62;76.63
56681;BME280;42558;52.388;13.390;2023-03-19T08:22:48;101087.23;;;10.35;78.29
56681;BME280;42558;52.388;13.390;2023-03-19T08:25:19;101116.59;;;10.18;79.83
56681;BME280;42558;52.388;13.390;2023-03-19T08:27:49;101134.70;;;10.18;79.50
56681;BME280;42558;52.388;13.390;2023-03-19T08:30:19;101142.11;;;10.04;80.01
56681;BME280;42558;52.388;13.390;2023-03-19T08:32:49;101138.09;;;9.74;80.35
56681;BME280;42558;52.388;13.390;2023-03-19T08:35:19;101142.44;;;9.57;80.93
56681;BME280;42558;52.388;13.390;2023-03-19T08:37:49;101151.94;;;9.58;80.77
56681;BME280;42558;52.388;13.390;2023-03-19T08:40:19;101155.33;;;9.38;79.57
56681;BME280;42558;52.388;13.390;2023-03-19T08:42:50;101150.42;;;9.24;79.58
56681;BME280;42558;52.388;13.390;2023-03-19T08:45:20;101149.34;;;8.96;83.25
56681;BME280;42558;52.388;13.390;2023-03-19T08:47:50;101144.79;;;8.64;87.72
56681;BME280;42558;52.388;13.390;2023-03-19T08:50:20;101141.34;;;8.24;93.04
56681;BME280;42558;52.388;13.390;2023-03-19T08:52:49;101136.00;;;8.21;96.06
56681;BME280;42558;52.388;13.390;2023-03-19T08:55:17;101128.13;;;8.09;98.17
56681;BME280;42558;52.388;13.390;2023-03-19T08:57:45;101111.20;;;8.06;99.64
56681;BME280;42558;52.388;13.390;2023-03-19T09:00:15;101100.02;;;7.88;100.00
56681;BME280;42558;52.388;13.390;2023-03-19T09:02:42;101090.83;;;7.56;100.00
56681;BME280;42558;52.388;13.390;2023-03-19T09:05:11;101063.86;;;7.50;100.00
56681;BME280;42558;52.388;13.390;2023-03-19T09:07:39;101043.34;;;7.43;100.00
56681;BME280;42558;52.388;13.390;2023-03-19T09:10:08;101033.45;;;7.46;100.00
56681;BME280;42558;52.388;13.390;2023-03-19T09:12:36;101024.80;;;7.54;100.00
56681;BME280;42558;52.388;13.390;2023-03-19T09:15:05;101019.33;;;7.64;100.00
56681;BME280;42558;52.388;13.390;2023-03-19T09:17:36;101016.11;;;7.68;100.00
56681;BME280;42558;52.388;13.390;2023-03-19T09:20:05;101024.64;;;7.72;100.00
56681;BME280;42558;52.388;13.390;2023-03-19T09:22:33;101035.00;;;7.79;100.00
56681;BME280;42558;52.388;13.390;2023-03-19T09:25:01;101035.37;;;7.86;100.00
56681;BME280;42558;52.388;13.390;2023-03-19T09:27:29;101031.17;;;7.92;100.00
56681;BME280;42558;52.388;13.390;2023-03-19T09:29:58;101036.80;;;7.94;100.00
56681;BME280;42558;52.388;13.390;2023-03-19T09:32:26;101030.04;;;7.96;100.00
56681;BME280;42558;52.388;13.390;2023-03-19T09:34:55;101020.75;;;8.02;100.00
56681;BME280;42558;52.388;13.390;2023-03-19T09:37:23;101017.87;;;8.11;100.00
56681;BME280;42558;52.388;13.390;2023-03-19T09:39:51;101029.45;;;8.18;100.00
56681;BME280;42558;52.388;13.390;2023-03-19T09:45:22;101050.98;;;8.36;100.00
56681;BME280;42558;52.388;13.390;2023-03-19T09:47:59;101046.96;;;8.43;100.00
56681;BME280;42558;52.388;13.390;2023-03-19T09:50:33;101042.29;;;8.52;100.00
56681;BME280;42558;52.388;13.390;2023-03-19T09:53:07;101044.69;;;8.49;100.00
56681;BME280;42558;52.388;13.390;2023-03-19T09:55:48;101042.10;;;8.51;100.00
56681;BME280;42558;52.388;13.390;2023-03-19T09:58:28;101041.42;;;8.66;100.00
56681;BME280;42558;52.388;13.390;2023-03-19T10:01:00;101038.46;;;8.73;100.00
56681;BME280;42558;52.388;13.390;2023-03-19T10:06:37;101044.55;;;8.92;100.00
56681;BME280;42558;52.388;13.390;2023-03-19T10:09:53;101052.11;;;9.00;100.00
56681;BME280;42558;52.388;13.390;2023-03-19T10:15:30;101054.22;;;9.22;100.00
56681;BME280;42558;52.388;13.390;2023-03-19T10:20:43;101050.57;;;9.54;100.00
56681;BME280;42558;52.388;13.390;2023-03-19T10:23:51;101054.63;;;9.70;100.00
56681;BME280;42558;52.388;13.390;2023-03-19T10:26:31;101056.29;;;9.59;100.00
56681;BME280;42558;52.388;13.390;2023-03-19T10:32:19;101047.33;;;9.57;100.00
56681;BME280;42558;52.388;13.390;2023-03-19T10:34:51;101044.52;;;9.74;100.00
56681;BME280;42558;52.388;13.390;2023-03-19T10:37:27;101041.29;;;9.95;100.00
56681;BME280;42558;52.388;13.390;2023-03-19T10:39:59;101044.52;;;10.24;100.00
56681;BME280;42558;52.388;13.390;2023-03-19T10:43:06;101044.67;;;10.60;100.00
56681;BME280;42558;52.388;13.390;2023-03-19T10:45:43;101042.02;;;11.23;100.00
56681;BME280;42558;52.388;13.390;2023-03-19T10:48:16;101037.10;;;11.59;100.00
56681;BME280;42558;52.388;13.390;2023-03-19T10:51:00;101043.65;;;11.50;100.00
56681;BME280;42558;52.388;13.390;2023-03-19T10:53:34;101040.42;;;11.70;100.00
56681;BME280;42558;52.388;13.390;2023-03-19T10:56:09;101037.64;;;11.99;100.00
56681;BME280;42558;52.388;13.390;2023-03-19T10:59:19;101037.99;;;11.72;100.00
56681;BME280;42558;52.388;13.390;2023-03-19T11:01:55;101035.27;;;11.66;100.00
56681;BME280;42558;52.388;13.390;2023-03-19T11:04:26;101036.58;;;11.73;100.00
56681;BME280;42558;52.388;13.390;2023-03-19T11:07:09;101032.58;;;11.89;100.00
56681;BME280;42558;52.388;13.390;2023-03-19T11:09:45;101033.16;;;12.38;100.00
56681;BME280;42558;52.388;13.390;2023-03-19T11:12:21;101036.14;;;12.36;99.73
56681;BME280;42558;52.388;13.390;2023-03-19T11:14:57;101037.77;;;12.75;100.00
56681;BME280;42558;52.388;13.390;2023-03-19T11:17:38;101041.05;;;12.89;98.23
56681;BME280;42558;52.388;13.390;2023-03-19T11:20:31;101048.02;;;13.19;98.24
56681;BME280;42558;52.388;13.390;2023-03-19T11:23:11;101046.52;;;13.28;95.15
56681;BME280;42558;52.388;13.390;2023-03-19T11:25:46;101045.55;;;13.41;94.14
56681;BME280;42558;52.388;13.390;2023-03-19T11:28:20;101044.08;;;13.61;94.59
56681;BME280;42558;52.388;13.390;2023-03-19T11:31:45;101039.53;;;13.69;92.62
56681;BME280;42558;52.388;13.390;2023-03-19T11:34:58;101037.64;;;13.23;91.99
56681;BME280;42558;52.388;13.390;2023-03-19T11:38:01;101033.14;;;13.65;93.45
56681;BME280;42558;52.388;13.390;2023-03-19T11:40:43;101029.86;;;14.23;91.09
56681;BME280;42558;52.388;13.390;2023-03-19T11:43:45;101023.80;;;14.09;90.87
56681;BME280;42558;52.388;13.390;2023-03-19T11:46:49;101022.41;;;14.17;92.94
56681;BME280;42558;52.388;13.390;2023-03-19T11:49:46;101016.80;;;13.82;88.41
56681;BME280;42558;52.388;13.390;2023-03-19T11:55:20;101015.89;;;13.76;91.37
56681;BME280;42558;52.388;13.390;2023-03-19T12:04:02;101012.06;;;13.90;90.78
56681;BME280;42558;52.388;13.390;2023-03-19T12:09:34;101011.72;;;13.96;88.93
56681;BME280;42558;52.388;13.390;2023-03-19T12:12:24;101013.17;;;13.63;84.39
56681;BME280;42558;52.388;13.390;2023-03-19T12:18:57;101009.73;;;13.79;81.72
56681;BME280;42558;52.388;13.390;2023-03-19T12:24:03;101009.27;;;13.98;81.46
56681;BME280;42558;52.388;13.390;2023-03-19T12:35:35;101005.98;;;14.31;77.95
56681;BME280;42558;52.388;13.390;2023-03-19T12:41:23;101001.28;;;14.47;74.95
56681;BME280;42558;52.388;13.390;2023-03-19T12:44:00;101002.19;;;14.61;77.99
56681;BME280;42558;52.388;13.390;2023-03-19T12:46:49;100998.47;;;14.54;76.80
56681;BME280;42558;52.388;13.390;2023-03-19T12:52:25;100994.04;;;14.70;73.50
56681;BME280;42558;52.388;13.390;2023-03-19T13:00:48;100991.23;;;14.73;73.02
56681;BME280;42558;52.388;13.390;2023-03-19T13:03:32;100992.29;;;14.83;73.83
56681;BME280;42558;52.388;13.390;2023-03-19T13:06:34;100991.35;;;15.27;72.63
56681;BME280;42558;52.388;13.390;2023-03-19T13:09:31;100994.05;;;15.05;71.71
56681;BME280;42558;52.388;13.390;2023-03-19T13:12:21;100990.66;;;15.20;69.47
56681;BME280;42558;52.388;13.390;2023-03-19T13:21:24;100993.30;;;15.28;67.36
56681;BME280;42558;52.388;13.390;2023-03-19T13:24:11;100989.41;;;15.19;66.49
56681;BME280;42558;52.388;13.390;2023-03-19T13:26:44;100986.70;;;15.47;67.61
56681;BME280;42558;52.388;13.390;2023-03-19T13:29:29;100986.42;;;15.14;67.05
56681;BME280;42558;52.388;13.390;2023-03-19T13:32:22;100982.16;;;15.23;66.65
56681;BME280;42558;52.388;13.390;2023-03-19T13:37:42;100973.20;;;15.62;65.76
56681;BME280;42558;52.388;13.390;2023-03-19T13:40:46;100975.31;;;15.66;65.82
56681;BME280;42558;52.388;13.390;2023-03-19T13:54:15;100965.99;;;15.38;65.17
56681;BME280;42558;52.388;13.390;2023-03-19T13:59:37;100962.38;;;15.69;65.37
56681;BME280;42558;52.388;13.390;2023-03-19T14:05:17;100960.46;;;15.48;64.04
56681;BME280;42558;52.388;13.390;2023-03-19T14:07:53;100956.44;;;15.36;63.53
56681;BME280;42558;52.388;13.390;2023-03-19T14:10:26;100958.11;;;15.72;63.84
56681;BME280;42558;52.388;13.390;2023-03-19T14:13:07;100955.48;;;15.61;64.01
56681;BME280;42558;52.388;13.390;2023-03-19T14:15:47;100951.76;;;15.60;63.47
56681;BME280;42558;52.388;13.390;2023-03-19T14:18:21;100947.63;;;15.77;64.22
56681;BME280;42558;52.388;13.390;2023-03-19T14:20:59;100946.47;;;15.95;63.55
56681;BME280;42558;52.388;13.390;2023-03-19T14:23:39;100940.83;;;15.90;63.12
56681;BME280;42558;52.388;13.390;2023-03-19T14:26:22;100940.39;;;16.07;63.21
56681;BME280;42558;52.388;13.390;2023-03-19T14:31:45;100935.73;;;16.82;61.74
56681;BME280;42558;52.388;13.390;2023-03-19T14:34:35;100940.55;;;16.56;60.72
56681;BME280;42558;52.388;13.390;2023-03-19T14:37:28;100941.79;;;16.34;61.35
56681;BME280;42558;52.388;13.390;2023-03-19T14:40:20;100937.75;;;15.98;60.54
56681;BME280;42558;52.388;13.390;2023-03-19T14:43:14;100941.89;;;15.88;62.32